Time;durP1;ratioP1;P1;durP2;ratioP2;P2;SDS_P1;SDS_P2;PMS_P1;PMS_P2;Temp;Humidity;BMP_temperature;BMP_pressure;BME280_temperature;BME280_humidity;BME280_pressure;Samples;Min_cycle;Max_cycle;Signal;HPM_P1;HPM_P2
2023/01/14 00:00:10;;;;;;;17.63;3.57;;;;;;;6.97;100.00;100794.84;700141;28;1192;-62
2023/01/14 00:00:31;;;;;;;18.35;3.45;;;;;;;6.96;100.00;100793.09;700529;28;1213;-63
2023/01/14 00:00:51;;;;;;;17.67;3.30;;;;;;;6.89;100.00;100797.34;702829;27;4344;-62
2023/01/14 00:01:23;;;;;;;18.48;3.55;;;;;;;6.87;100.00;100796.47;704966;27;1280;-62
2023/01/14 00:01:44;;;;;;;16.45;3.47;;;;;;;6.91;100.00;100792.16;702338;28;1300;-62
2023/01/14 00:02:04;;;;;;;16.27;3.72;;;;;;;6.86;100.00;100792.09;699525;28;1577;-64
2023/01/14 00:02:24;;;;;;;17.80;3.50;;;;;;;6.79;100.00;100795.50;698876;28;1365;-63
2023/01/14 00:02:45;;;;;;;17.90;3.35;;;;;;;6.78;100.00;100785.94;699608;28;1477;-63
2023/01/14 00:03:05;;;;;;;21.23;3.67;;;;;;;6.86;100.00;100791.25;699743;28;1723;-63
2023/01/14 00:03:27;;;;;;;18.40;3.57;;;;;;;6.82;100.00;100796.38;699543;28;1564;-65
2023/01/14 00:03:48;;;;;;;18.23;3.67;;;;;;;6.81;100.00;100794.66;701615;28;4323;-62
2023/01/14 00:04:09;;;;;;;17.95;3.90;;;;;;;6.91;100.00;100795.66;704727;27;1284;-65
2023/01/14 00:04:30;;;;;;;18.55;3.80;;;;;;;6.92;100.00;100789.59;706268;27;1403;-63
2023/01/14 00:04:50;;;;;;;16.23;3.43;;;;;;;7.01;100.00;100783.63;706484;27;1455;-64
2023/01/14 00:05:11;;;;;;;18.98;3.58;;;;;;;6.94;100.00;100782.69;704105;27;1201;-64
2023/01/14 00:05:31;;;;;;;20.60;3.77;;;;;;;6.94;100.00;100782.69;699340;28;2300;-63
2023/01/14 00:05:56;;;;;;;20.00;4.13;;;;;;;6.90;100.00;100785.22;701057;28;1466;-62
2023/01/14 00:06:19;;;;;;;17.83;3.83;;;;;;;6.89;100.00;100786.09;703961;28;1208;-62
2023/01/14 00:06:39;;;;;;;14.95;3.47;;;;;;;6.93;100.00;100777.47;700865;28;4442;-63
2023/01/14 00:07:01;;;;;;;15.83;3.30;;;;;;;7.01;100.00;100781.03;702427;28;1357;-63
2023/01/14 00:07:21;;;;;;;19.77;3.53;;;;;;;6.94;100.00;100785.28;702896;27;1436;-63
2023/01/14 00:07:41;;;;;;;18.07;3.67;;;;;;;6.89;100.00;100783.47;705403;27;1473;-63
2023/01/14 00:08:02;;;;;;;18.97;3.83;;;;;;;6.93;100.00;100780.06;704956;28;1316;-63
2023/01/14 00:08:22;;;;;;;19.17;3.40;;;;;;;6.91;100.00;100784.34;704377;27;1434;-62
2023/01/14 00:08:43;;;;;;;23.10;3.70;;;;;;;7.01;100.00;100778.44;705149;27;1407;-63
2023/01/14 00:09:07;;;;;;;18.67;3.60;;;;;;;7.00;100.00;100776.69;704118;28;1764;-63
2023/01/14 00:09:29;;;;;;;16.60;3.63;;;;;;;7.01;100.00;100778.44;704968;27;1256;-63
2023/01/14 00:09:50;;;;;;;18.80;3.83;;;;;;;7.04;100.00;100780.19;704715;27;4421;-61
2023/01/14 00:10:10;;;;;;;17.67;3.63;;;;;;;7.03;100.00;100771.50;704983;27;1095;-62
2023/01/14 00:10:30;;;;;;;17.73;3.73;;;;;;;6.96;100.00;100773.19;705686;27;1485;-62
2023/01/14 00:10:52;;;;;;;19.17;3.67;;;;;;;6.97;100.00;100767.13;704376;27;1254;-63
2023/01/14 00:11:14;;;;;;;19.33;3.72;;;;;;;6.93;100.00;100777.47;698926;28;1192;-62
2023/01/14 00:11:48;;;;;;;18.85;3.67;;;;;;;6.82;100.00;100770.41;698993;28;1967;-63
2023/01/14 00:12:09;;;;;;;18.30;3.42;;;;;;;6.86;100.00;100771.31;699992;28;1106;-63
2023/01/14 00:12:29;;;;;;;20.77;4.20;;;;;;;6.92;100.00;100775.72;699107;28;1464;-63
2023/01/14 00:12:50;;;;;;;20.13;4.60;;;;;;;6.95;100.00;100778.34;699770;28;4572;-62
2023/01/14 00:13:10;;;;;;;19.00;4.00;;;;;;;6.92;100.00;100771.41;707007;27;1129;-62
2023/01/14 00:13:38;;;;;;;18.03;3.57;;;;;;;6.90;100.00;100774.84;706113;27;1465;-63
2023/01/14 00:13:59;;;;;;;18.52;3.92;;;;;;;6.98;100.00;100758.47;703480;27;1133;-63
2023/01/14 00:14:38;;;;;;;16.27;3.95;;;;;;;7.01;100.00;100768.03;704243;27;1429;-62
2023/01/14 00:14:59;;;;;;;18.35;3.58;;;;;;;6.98;100.00;100766.25;700722;28;1674;-61
2023/01/14 00:15:19;;;;;;;18.27;3.60;;;;;;;6.92;100.00;100773.13;702251;28;1429;-62
2023/01/14 00:15:48;;;;;;;19.27;3.70;;;;;;;6.92;100.00;100775.72;700923;28;5250;-63
2023/01/14 00:16:13;;;;;;;19.52;3.60;;;;;;;6.99;100.00;100756.72;701749;28;1236;-62
2023/01/14 00:16:33;;;;;;;17.77;3.70;;;;;;;6.95;100.00;100766.25;702002;28;1202;-63
2023/01/14 00:16:54;;;;;;;14.90;3.13;;;;;;;7.05;100.00;100763.72;702455;28;1490;-62
2023/01/14 00:17:14;;;;;;;15.90;3.30;;;;;;;7.01;100.00;100762.84;700078;28;1208;-62
2023/01/14 00:17:35;;;;;;;18.53;3.87;;;;;;;6.98;100.00;100760.22;698416;28;1406;-63
2023/01/14 00:17:55;;;;;;;17.17;3.53;;;;;;;6.94;100.00;100761.88;698374;28;1567;-63
2023/01/14 00:18:15;;;;;;;16.75;3.53;;;;;;;6.93;100.00;100761.88;699390;28;1241;-62
2023/01/14 00:18:36;;;;;;;16.90;3.53;;;;;;;6.95;100.00;100753.25;700217;28;1499;-62
2023/01/14 00:18:57;;;;;;;17.90;4.03;;;;;;;6.92;100.00;100748.03;698996;28;4240;-61
2023/01/14 00:19:18;;;;;;;19.10;3.63;;;;;;;6.99;100.00;100761.94;702376;28;1284;-63
2023/01/14 00:19:39;;;;;;;20.65;4.50;;;;;;;6.95;100.00;100765.34;702885;28;1440;-63
2023/01/14 00:19:59;;;;;;;21.05;3.90;;;;;;;6.95;100.00;100757.56;701282;28;1634;-63
2023/01/14 00:20:20;;;;;;;18.93;3.77;;;;;;;6.96;100.00;100746.31;701585;28;4125;-62
2023/01/14 00:20:40;;;;;;;19.35;3.70;;;;;;;6.95;100.00;100754.94;701518;28;1339;-61
2023/01/14 00:21:06;;;;;;;19.53;3.63;;;;;;;6.89;100.00;100758.34;701830;28;1300;-62
2023/01/14 00:21:26;;;;;;;16.42;3.65;;;;;;;6.99;100.00;100754.13;701901;28;1167;-63
2023/01/14 00:21:47;;;;;;;18.63;3.47;;;;;;;7.04;100.00;100754.19;701483;28;5196;-63
2023/01/14 00:22:07;;;;;;;18.27;4.07;;;;;;;7.06;100.00;100757.69;701415;28;1356;-63
2023/01/14 00:22:29;;;;;;;17.77;4.45;;;;;;;7.00;100.00;100753.28;699343;28;1384;-62
2023/01/14 00:22:50;;;;;;;14.88;3.28;;;;;;;7.00;100.00;100753.28;698631;28;1189;-62
2023/01/14 00:23:10;;;;;;;16.67;3.00;;;;;;;6.98;100.00;100762.81;699706;28;1074;-62
2023/01/14 00:23:32;;;;;;;15.27;3.10;;;;;;;7.04;100.00;100760.25;696754;28;1291;-62
2023/01/14 00:23:53;;;;;;;20.33;3.63;;;;;;;6.90;100.00;100756.66;696892;28;1309;-63
2023/01/14 00:24:15;;;;;;;19.00;3.65;;;;;;;6.84;100.00;100762.66;697422;28;1326;-63
2023/01/14 00:24:35;;;;;;;14.07;3.10;;;;;;;6.82;100.00;100759.13;698103;28;1263;-62
2023/01/14 00:24:56;;;;;;;18.47;3.10;;;;;;;6.75;100.00;100760.78;695407;28;4528;-61
2023/01/14 00:25:17;;;;;;;17.92;3.45;;;;;;;6.76;100.00;100764.28;698247;28;1143;-63
2023/01/14 00:25:38;;;;;;;16.98;3.50;;;;;;;6.74;100.00;100764.25;698791;28;1305;-62
2023/01/14 00:26:10;;;;;;;18.15;3.58;;;;;;;6.64;100.00;100767.56;698660;28;1250;-63
2023/01/14 00:26:31;;;;;;;16.92;3.65;;;;;;;6.70;100.00;100759.88;699821;28;1565;-62
2023/01/14 00:26:54;;;;;;;17.37;3.33;;;;;;;6.69;100.00;100765.91;699466;28;1468;-63
2023/01/14 00:27:15;;;;;;;20.73;3.50;;;;;;;6.71;100.00;100761.59;699353;28;1986;-62
2023/01/14 00:27:35;;;;;;;14.73;3.30;;;;;;;6.72;100.00;100773.75;699377;28;1420;-62
2023/01/14 00:27:56;;;;;;;15.93;3.53;;;;;;;6.70;100.00;100771.97;699336;28;4240;-62
2023/01/14 00:28:16;;;;;;;22.20;3.93;;;;;;;6.63;100.00;100769.31;698188;28;1238;-62
2023/01/14 00:28:37;;;;;;;18.27;3.53;;;;;;;6.60;100.00;100773.59;697250;28;1351;-62
2023/01/14 00:28:57;;;;;;;16.60;3.37;;;;;;;6.59;100.00;100771.81;692902;28;1377;-61
2023/01/14 00:29:24;;;;;;;20.52;3.50;;;;;;;6.70;100.00;100779.78;694055;28;1298;-62
2023/01/14 00:29:44;;;;;;;17.25;3.45;;;;;;;6.65;100.00;100769.34;694102;28;1409;-63
2023/01/14 00:30:05;;;;;;;16.33;3.60;;;;;;;6.61;100.00;100771.00;695002;28;1625;-62
2023/01/14 00:30:26;;;;;;;17.35;3.70;;;;;;;6.62;100.00;100766.69;695682;28;1423;-62
2023/01/14 00:30:46;;;;;;;18.80;3.93;;;;;;;6.59;100.00;100783.13;695371;28;4321;-63
2023/01/14 00:31:16;;;;;;;17.53;3.83;;;;;;;6.71;100.00;100776.31;695483;28;1346;-63
2023/01/14 00:31:36;;;;;;;13.63;3.55;;;;;;;6.69;100.00;100773.72;694448;28;1963;-62
2023/01/14 00:32:00;;;;;;;16.00;3.65;;;;;;;6.76;100.00;100778.13;695736;28;1120;-61
2023/01/14 00:32:21;;;;;;;17.17;3.70;;;;;;;6.82;100.00;100777.31;697140;28;1160;-61
2023/01/14 00:32:41;;;;;;;19.10;3.83;;;;;;;6.75;100.00;100776.38;701650;28;1420;-61
2023/01/14 00:33:01;;;;;;;18.20;3.80;;;;;;;6.77;100.00;100771.19;699634;28;1286;-61
2023/01/14 00:33:22;;;;;;;17.25;3.92;;;;;;;6.83;100.00;100776.47;696694;28;1437;-63
2023/01/14 00:33:43;;;;;;;18.87;4.30;;;;;;;6.84;100.00;100777.34;696130;28;4408;-62
2023/01/14 00:34:04;;;;;;;18.48;3.65;;;;;;;6.93;100.00;100777.47;696224;28;1655;-62
2023/01/14 00:34:26;;;;;;;16.50;3.37;;;;;;;6.85;100.00;100779.97;697363;28;1541;-61
2023/01/14 00:34:47;;;;;;;15.85;3.10;;;;;;;6.74;100.00;100785.06;696525;28;1402;-62
2023/01/14 00:35:07;;;;;;;16.93;3.33;;;;;;;6.65;100.00;100777.13;695920;28;1289;-62
2023/01/14 00:35:28;;;;;;;14.88;3.33;;;;;;;6.71;100.00;100774.59;693763;28;1431;-63
2023/01/14 00:35:52;;;;;;;17.08;3.10;;;;;;;6.84;100.00;100777.34;693832;28;1427;-63
2023/01/14 00:36:18;;;;;;;17.05;3.53;;;;;;;6.79;100.00;100778.16;694038;28;1475;-62
2023/01/14 00:36:38;;;;;;;16.98;3.42;;;;;;;6.70;100.00;100769.38;692901;28;1288;-62
2023/01/14 00:36:59;;;;;;;17.25;3.10;;;;;;;6.67;100.00;100779.75;694667;28;4509;-62
2023/01/14 00:37:19;;;;;;;15.60;3.50;;;;;;;6.67;100.00;100780.59;698567;28;1233;-61
2023/01/14 00:37:39;;;;;;;18.10;3.70;;;;;;;6.69;100.00;100778.91;698017;28;1410;-61
2023/01/14 00:38:02;;;;;;;18.30;3.72;;;;;;;6.66;100.00;100778.88;698149;28;1511;-61
2023/01/14 00:38:22;;;;;;;18.67;3.70;;;;;;;6.67;100.00;100775.41;694975;28;1504;-61
2023/01/14 00:38:43;;;;;;;19.15;3.75;;;;;;;6.66;100.00;100778.88;695107;28;1413;-63
2023/01/14 00:39:05;;;;;;;18.25;3.75;;;;;;;6.62;100.00;100779.69;694705;28;5635;-62
2023/01/14 00:39:25;;;;;;;17.80;3.90;;;;;;;6.61;100.00;100775.34;695406;28;1669;-61
2023/01/14 00:39:46;;;;;;;17.08;3.65;;;;;;;6.65;100.00;100777.97;694850;28;4510;-62
2023/01/14 00:40:07;;;;;;;15.67;3.40;;;;;;;6.65;100.00;100777.97;695604;28;1076;-63
2023/01/14 00:40:27;;;;;;;14.93;3.40;;;;;;;6.64;100.00;100780.56;694091;28;1160;-62
2023/01/14 00:40:58;;;;;;;17.17;3.47;;;;;;;6.64;100.00;100785.75;695029;28;1603;-62
2023/01/14 00:41:24;;;;;;;15.57;2.97;;;;;;;6.69;100.00;100776.31;691561;28;1294;-61
2023/01/14 00:41:44;;;;;;;14.75;2.90;;;;;;;6.72;100.00;100784.13;696694;28;1473;-62
2023/01/14 00:42:05;;;;;;;14.87;3.13;;;;;;;6.69;100.00;100783.22;695950;28;1348;-62
2023/01/14 00:42:25;;;;;;;17.25;3.53;;;;;;;6.68;100.00;100786.69;696186;28;1063;-62
2023/01/14 00:42:45;;;;;;;19.20;3.67;;;;;;;6.67;100.00;100784.94;693129;28;4380;-62
2023/01/14 00:43:06;;;;;;;19.45;3.80;;;;;;;6.59;100.00;100795.22;695700;28;1629;-63
2023/01/14 00:43:27;;;;;;;18.27;3.43;;;;;;;6.69;100.00;100784.09;696908;28;1347;-62
2023/01/14 00:43:51;;;;;;;16.70;3.60;;;;;;;6.65;100.00;100785.78;698204;28;1311;-63
2023/01/14 00:44:12;;;;;;;16.63;3.60;;;;;;;6.60;100.00;100783.97;694019;28;1111;-62
2023/01/14 00:44:33;;;;;;;16.67;3.63;;;;;;;6.59;100.00;100780.50;695417;28;1235;-61
2023/01/14 00:44:53;;;;;;;15.40;3.47;;;;;;;6.57;100.00;100791.72;695977;28;1496;-62
2023/01/14 00:45:13;;;;;;;14.85;3.60;;;;;;;6.56;100.00;100787.38;696166;28;1175;-62
2023/01/14 00:45:34;;;;;;;15.77;3.30;;;;;;;6.57;100.00;100789.13;696296;28;1217;-63
2023/01/14 00:45:54;;;;;;;17.10;3.33;;;;;;;6.59;100.00;100792.59;693658;28;4379;-62
2023/01/14 00:46:19;;;;;;;15.97;3.17;;;;;;;6.54;100.00;100792.56;699645;28;1490;-61
2023/01/14 00:46:41;;;;;;;16.35;3.45;;;;;;;6.52;100.00;100785.59;700438;28;1248;-61
2023/01/14 00:47:01;;;;;;;15.57;3.40;;;;;;;6.53;100.00;100793.41;696521;28;1427;-62
2023/01/14 00:47:22;;;;;;;17.30;3.33;;;;;;;6.52;100.00;100795.97;697095;28;1356;-62
2023/01/14 00:47:43;;;;;;;15.88;3.83;;;;;;;6.43;100.00;100789.81;695769;28;1211;-62
2023/01/14 00:48:03;;;;;;;15.63;3.58;;;;;;;6.43;100.00;100784.59;697232;28;1580;-63
2023/01/14 00:48:24;;;;;;;15.87;3.40;;;;;;;6.44;100.00;100788.97;696583;28;1441;-61
2023/01/14 00:48:44;;;;;;;17.60;4.20;;;;;;;6.55;100.00;100777.84;696275;28;4596;-63
2023/01/14 00:49:09;;;;;;;16.92;3.28;;;;;;;6.56;100.00;100784.78;694802;28;1643;-62
2023/01/14 00:49:30;;;;;;;18.98;3.63;;;;;;;6.49;100.00;100786.41;696448;28;1219;-63
2023/01/14 00:49:51;;;;;;;18.35;3.95;;;;;;;6.51;100.00;100787.34;697117;28;1376;-62
2023/01/14 00:50:11;;;;;;;14.35;3.35;;;;;;;6.51;100.00;100794.22;697150;28;1298;-62
2023/01/14 00:50:31;;;;;;;18.10;3.63;;;;;;;6.57;100.00;100794.31;697657;28;1383;-63
2023/01/14 00:50:52;;;;;;;17.57;3.60;;;;;;;6.61;100.00;100788.31;695144;28;1464;-62
2023/01/14 00:51:13;;;;;;;19.10;3.60;;;;;;;6.58;100.00;100783.09;698517;28;1493;-62
2023/01/14 00:51:34;;;;;;;18.42;3.55;;;;;;;6.59;100.00;100793.50;696006;28;1245;-62
2023/01/14 00:51:55;;;;;;;18.85;3.35;;;;;;;6.57;100.00;100794.31;694088;28;4468;-63
2023/01/14 00:52:15;;;;;;;16.88;3.22;;;;;;;6.58;100.00;100790.88;695507;28;1374;-63
2023/01/14 00:52:36;;;;;;;16.10;3.20;;;;;;;6.60;100.00;100787.44;694947;28;1214;-62
2023/01/14 00:52:56;;;;;;;15.63;3.40;;;;;;;6.58;100.00;100794.34;696861;28;1644;-63
2023/01/14 00:53:17;;;;;;;18.63;3.37;;;;;;;6.57;100.00;100794.31;695344;28;1346;-63
2023/01/14 00:53:39;;;;;;;19.67;4.10;;;;;;;6.54;100.00;100789.09;694315;28;1166;-61
2023/01/14 00:54:01;;;;;;;16.55;3.78;;;;;;;6.56;100.00;100795.16;692197;28;1043;-62
2023/01/14 00:54:22;;;;;;;20.42;3.55;;;;;;;6.54;100.00;100796.91;691439;28;1505;-62
2023/01/14 00:54:42;;;;;;;17.58;3.33;;;;;;;6.46;100.00;100796.78;691992;28;4524;-63
2023/01/14 00:55:03;;;;;;;16.03;3.50;;;;;;;6.42;100.00;100795.84;693188;28;1652;-63
2023/01/14 00:55:25;;;;;;;15.50;3.58;;;;;;;6.41;100.00;100794.13;696448;28;1529;-61
2023/01/14 00:55:46;;;;;;;17.02;3.70;;;;;;;6.49;100.00;100796.81;697811;28;1338;-62
2023/01/14 00:56:07;;;;;;;18.23;3.50;;;;;;;6.55;100.00;100799.50;699987;28;1209;-62
2023/01/14 00:56:30;;;;;;;18.25;3.53;;;;;;;6.49;100.00;100799.41;699323;28;1590;-62
2023/01/14 00:56:50;;;;;;;18.70;3.75;;;;;;;6.47;100.00;100796.78;696166;28;1607;-63
2023/01/14 00:57:12;;;;;;;17.53;3.57;;;;;;;6.56;100.00;100798.66;696585;28;1352;-62
2023/01/14 00:57:33;;;;;;;20.17;3.97;;;;;;;6.54;100.00;100796.91;695612;28;1369;-63
2023/01/14 00:57:53;;;;;;;21.10;3.90;;;;;;;6.55;100.00;100811.59;692503;28;4278;-62
2023/01/14 00:58:13;;;;;;;17.23;3.83;;;;;;;6.57;100.00;100802.13;693203;28;1331;-61
2023/01/14 00:58:34;;;;;;;19.17;3.80;;;;;;;6.55;100.00;100807.31;691008;28;1441;-62
2023/01/14 00:58:55;;;;;;;17.80;3.53;;;;;;;6.62;100.00;100803.06;693617;28;1251;-63
2023/01/14 00:59:22;;;;;;;17.45;3.85;;;;;;;6.63;100.00;100804.78;695118;28;1190;-62
2023/01/14 00:59:42;;;;;;;17.98;3.88;;;;;;;6.62;100.00;100808.25;698562;28;1400;-61
2023/01/14 01:00:03;;;;;;;18.90;4.00;;;;;;;6.73;100.00;100806.69;699766;28;1735;-61
2023/01/14 01:00:23;;;;;;;19.90;4.03;;;;;;;6.79;100.00;100801.53;695819;28;1692;-62
2023/01/14 01:00:44;;;;;;;15.60;3.30;;;;;;;6.84;100.00;100803.34;693564;28;4339;-61
2023/01/14 01:01:05;;;;;;;18.10;3.50;;;;;;;6.85;100.00;100805.94;694232;28;1096;-63
2023/01/14 01:01:26;;;;;;;19.17;3.70;;;;;;;6.77;100.00;100800.66;695641;28;1318;-62
2023/01/14 01:01:47;;;;;;;17.98;3.58;;;;;;;6.73;100.00;100809.28;696297;28;951;-61
2023/01/14 01:02:08;;;;;;;19.23;3.80;;;;;;;6.66;100.00;100815.25;695626;28;1380;-63
2023/01/14 01:02:28;;;;;;;17.17;3.90;;;;;;;6.62;100.00;100814.31;697960;28;1219;-63
2023/01/14 01:02:49;;;;;;;17.65;3.72;;;;;;;6.62;100.00;100803.06;695037;28;1786;-63
2023/01/14 01:03:09;;;;;;;19.50;3.60;;;;;;;6.60;100.00;100805.63;696379;28;1203;-63
2023/01/14 01:03:30;;;;;;;16.70;3.33;;;;;;;6.58;100.00;100803.88;695935;28;1379;-62
2023/01/14 01:03:53;;;;;;;15.48;3.22;;;;;;;6.60;100.00;100805.63;696295;28;4251;-62
2023/01/14 01:04:13;;;;;;;16.30;3.28;;;;;;;6.57;100.00;100807.31;695724;28;1229;-62
2023/01/14 01:04:34;;;;;;;13.13;3.28;;;;;;;6.53;100.00;100802.94;697051;28;1238;-62
2023/01/14 01:04:56;;;;;;;16.42;3.47;;;;;;;6.64;100.00;100809.13;696602;28;1839;-62
2023/01/14 01:05:17;;;;;;;17.90;3.60;;;;;;;6.58;100.00;100807.34;700337;28;1414;-63
2023/01/14 01:05:38;;;;;;;19.00;3.40;;;;;;;6.59;100.00;100814.28;698147;28;1234;-63
2023/01/14 01:05:59;;;;;;;16.63;3.47;;;;;;;6.63;100.00;100805.69;698572;28;1317;-63
2023/01/14 01:06:22;;;;;;;17.65;3.50;;;;;;;6.66;100.00;100810.06;695505;28;1353;-62
2023/01/14 01:06:43;;;;;;;19.63;3.47;;;;;;;6.77;100.00;100805.88;693473;28;4368;-62
2023/01/14 01:07:05;;;;;;;17.95;3.50;;;;;;;6.80;100.00;100816.28;694480;28;1265;-63
2023/01/14 01:07:25;;;;;;;19.30;3.80;;;;;;;6.82;100.00;100801.56;694624;28;1214;-63
2023/01/14 01:07:45;;;;;;;21.42;3.97;;;;;;;6.80;100.00;100812.84;694050;28;1583;-62
2023/01/14 01:08:12;;;;;;;18.85;3.65;;;;;;;6.73;100.00;100808.38;692857;28;1259;-63
2023/01/14 01:08:34;;;;;;;16.48;3.63;;;;;;;6.62;100.00;100810.88;692710;28;1250;-63
2023/01/14 01:09:00;;;;;;;15.35;3.60;;;;;;;6.59;100.00;100811.69;693636;28;1404;-63
2023/01/14 01:09:20;;;;;;;15.00;3.78;;;;;;;6.63;100.00;100809.97;693624;28;1709;-63
2023/01/14 01:09:40;;;;;;;16.33;3.57;;;;;;;6.75;100.00;100810.16;692603;28;4886;-62
2023/01/14 01:10:01;;;;;;;19.07;3.53;;;;;;;6.71;100.00;100804.91;695215;28;1246;-63
2023/01/14 01:10:21;;;;;;;18.98;3.58;;;;;;;6.72;100.00;100794.53;693886;28;1251;-62
2023/01/14 01:10:43;;;;;;;15.87;3.53;;;;;;;6.74;100.00;100795.44;691224;28;1560;-62
2023/01/14 01:11:04;;;;;;;15.77;3.58;;;;;;;6.75;100.00;100802.34;693075;28;1389;-62
2023/01/14 01:11:25;;;;;;;17.42;3.42;;;;;;;6.79;100.00;100806.75;691020;28;1529;-62
2023/01/14 01:11:45;;;;;;;18.10;3.50;;;;;;;6.76;100.00;100798.06;691424;28;1965;-62
2023/01/14 01:12:06;;;;;;;17.38;4.20;;;;;;;6.70;100.00;100795.34;691830;28;1551;-62
2023/01/14 01:12:26;;;;;;;19.87;4.30;;;;;;;6.70;100.00;100800.56;694418;28;1428;-62
2023/01/14 01:12:47;;;;;;;16.10;3.70;;;;;;;6.67;100.00;100798.78;696775;28;4336;-64
2023/01/14 01:13:07;;;;;;;15.00;3.20;;;;;;;6.63;100.00;100805.69;697194;28;1361;-63
2023/01/14 01:13:28;;;;;;;15.63;3.20;;;;;;;6.63;100.00;100804.78;700265;28;1298;-61
2023/01/14 01:13:48;;;;;;;18.93;3.70;;;;;;;6.71;100.00;100802.31;700133;28;1328;-63
2023/01/14 01:14:08;;;;;;;17.98;3.78;;;;;;;6.70;100.00;100810.94;700243;28;1311;-63
2023/01/14 01:14:29;;;;;;;16.30;3.60;;;;;;;6.68;100.00;100808.34;700260;28;1448;-63
2023/01/14 01:14:50;;;;;;;16.85;3.60;;;;;;;6.68;100.00;100810.06;696150;28;1312;-63
2023/01/14 01:15:10;;;;;;;17.40;3.07;;;;;;;6.61;100.00;100806.50;696950;28;992;-62
2023/01/14 01:15:36;;;;;;;16.03;3.27;;;;;;;6.60;100.00;100816.00;699718;28;1280;-62
2023/01/14 01:16:02;;;;;;;18.05;3.40;;;;;;;6.73;100.00;100805.78;696846;28;4342;-62
2023/01/14 01:16:24;;;;;;;18.08;3.50;;;;;;;6.79;100.00;100811.94;698724;28;3833;-61
2023/01/14 01:16:44;;;;;;;16.95;3.25;;;;;;;6.73;100.00;100816.19;697959;28;1357;-62
2023/01/14 01:17:04;;;;;;;15.30;3.20;;;;;;;6.66;100.00;100810.06;700369;28;1432;-61
2023/01/14 01:17:25;;;;;;;16.40;3.53;;;;;;;6.61;100.00;100812.56;699166;28;1174;-62
2023/01/14 01:17:45;;;;;;;14.10;3.10;;;;;;;6.58;100.00;100809.94;699530;28;1245;-61
2023/01/14 01:18:06;;;;;;;16.20;3.27;;;;;;;6.59;100.00;100813.38;698977;28;1474;-63
2023/01/14 01:18:27;;;;;;;16.65;3.45;;;;;;;6.65;100.00;100811.75;696686;28;1127;-63
2023/01/14 01:18:48;;;;;;;16.58;3.40;;;;;;;6.62;100.00;100808.25;695390;28;4430;-61
2023/01/14 01:19:08;;;;;;;17.70;3.65;;;;;;;6.64;100.00;100815.19;695809;28;1355;-63
2023/01/14 01:19:29;;;;;;;16.33;3.27;;;;;;;6.70;100.00;100817.03;695644;28;1383;-63
2023/01/14 01:19:50;;;;;;;18.63;3.47;;;;;;;6.74;100.00;100811.03;694437;28;1521;-61
2023/01/14 01:20:11;;;;;;;17.98;3.60;;;;;;;6.73;100.00;100817.06;697249;28;1231;-62
2023/01/14 01:20:32;;;;;;;16.92;3.67;;;;;;;6.71;100.00;100820.50;696437;28;1294;-61
2023/01/14 01:21:14;;;;;;;17.45;3.70;;;;;;;6.69;100.00;100812.69;699046;28;1362;-63
2023/01/14 01:21:35;;;;;;;18.33;3.50;;;;;;;6.72;100.00;100810.13;695537;28;1298;-62
2023/01/14 01:21:55;;;;;;;15.15;2.80;;;;;;;6.70;100.00;100814.44;696202;28;4328;-63
2023/01/14 01:22:16;;;;;;;15.07;3.10;;;;;;;6.66;100.00;100812.66;694832;28;1347;-63
2023/01/14 01:22:37;;;;;;;16.35;3.65;;;;;;;6.64;100.00;100811.75;697414;28;1344;-63
2023/01/14 01:22:58;;;;;;;15.60;3.75;;;;;;;6.59;100.00;100813.38;694643;28;1729;-63
2023/01/14 01:23:18;;;;;;;16.83;3.37;;;;;;;6.56;100.00;100819.44;695525;28;1134;-62
2023/01/14 01:23:42;;;;;;;16.30;3.13;;;;;;;6.54;100.00;100817.66;699058;28;1200;-62
2023/01/14 01:24:03;;;;;;;18.05;3.47;;;;;;;6.60;100.00;100812.53;697765;28;1315;-62
2023/01/14 01:24:24;;;;;;;18.50;3.65;;;;;;;6.73;100.00;100816.19;698724;28;1265;-63
2023/01/14 01:24:44;;;;;;;15.03;3.10;;;;;;;6.77;100.00;100813.66;696522;28;4539;-63
2023/01/14 01:25:05;;;;;;;17.42;3.22;;;;;;;6.74;100.00;100810.13;695398;28;1242;-62
2023/01/14 01:25:25;;;;;;;18.13;3.72;;;;;;;6.65;100.00;100813.50;695715;28;1419;-62
2023/01/14 01:25:46;;;;;;;16.07;3.50;;;;;;;6.76;100.00;100811.03;695741;28;1444;-61
2023/01/14 01:26:10;;;;;;;16.95;3.22;;;;;;;6.67;100.00;100814.38;700595;28;1495;-63
2023/01/14 01:26:30;;;;;;;16.58;3.50;;;;;;;6.63;100.00;100815.19;700669;28;1549;-63
2023/01/14 01:26:51;;;;;;;16.97;3.27;;;;;;;6.67;100.00;100810.91;703427;27;1264;-61
2023/01/14 01:27:11;;;;;;;18.55;3.50;;;;;;;6.68;100.00;100813.53;701761;28;1185;-61
2023/01/14 01:27:33;;;;;;;15.43;3.40;;;;;;;6.77;100.00;100808.47;701053;28;1308;-62
2023/01/14 01:27:55;;;;;;;19.38;3.80;;;;;;;6.73;100.00;100806.69;701713;28;5130;-63
2023/01/14 01:28:15;;;;;;;18.52;3.17;;;;;;;6.70;100.00;100810.94;701710;28;1165;-62
2023/01/14 01:28:36;;;;;;;15.30;3.27;;;;;;;6.73;100.00;100813.56;702456;28;1596;-63
2023/01/14 01:28:57;;;;;;;18.43;3.70;;;;;;;6.73;100.00;100809.28;699220;28;1340;-63
2023/01/14 01:29:19;;;;;;;19.35;3.88;;;;;;;6.69;100.00;100811.78;696797;28;1578;-62
2023/01/14 01:29:39;;;;;;;20.57;3.37;;;;;;;6.65;100.00;100806.56;694777;28;1306;-62
2023/01/14 01:29:59;;;;;;;15.93;2.92;;;;;;;6.69;100.00;100809.19;693937;28;1523;-62
2023/01/14 01:30:21;;;;;;;14.80;3.00;;;;;;;6.71;100.00;100813.56;693955;28;1322;-64
2023/01/14 01:30:42;;;;;;;14.98;3.60;;;;;;;6.80;100.00;100802.44;695571;28;4411;-62
2023/01/14 01:31:05;;;;;;;15.32;3.10;;;;;;;6.81;100.00;100810.25;695522;28;1405;-62
2023/01/14 01:31:27;;;;;;;21.30;4.15;;;;;;;6.78;100.00;100804.13;693724;28;1413;-62
2023/01/14 01:31:47;;;;;;;19.38;3.80;;;;;;;6.84;100.00;100806.81;696545;28;1926;-63
2023/01/14 01:32:08;;;;;;;19.87;3.57;;;;;;;6.90;100.00;100808.63;696166;28;1250;-62
2023/01/14 01:32:28;;;;;;;17.25;3.33;;;;;;;6.89;100.00;100806.88;698360;28;1342;-63
2023/01/14 01:32:48;;;;;;;14.63;3.10;;;;;;;6.82;100.00;100806.78;699467;28;1411;-62
2023/01/14 01:33:09;;;;;;;15.37;3.10;;;;;;;6.79;100.00;100808.47;699472;28;1047;-62
2023/01/14 01:33:29;;;;;;;14.88;3.20;;;;;;;6.73;100.00;100809.28;700036;28;1459;-61
2023/01/14 01:33:50;;;;;;;15.07;3.03;;;;;;;6.71;100.00;100808.38;700387;28;4287;-62
2023/01/14 01:34:10;;;;;;;14.17;2.87;;;;;;;6.68;100.00;100808.34;700472;28;1737;-63
2023/01/14 01:34:31;;;;;;;14.68;3.10;;;;;;;6.64;100.00;100811.75;700996;28;1527;-63
2023/01/14 01:34:51;;;;;;;17.63;3.20;;;;;;;6.61;100.00;100811.72;699633;28;1420;-62
2023/01/14 01:35:12;;;;;;;14.00;2.97;;;;;;;6.67;100.00;100801.38;696884;28;1148;-62
2023/01/14 01:35:32;;;;;;;16.80;3.33;;;;;;;6.71;100.00;100803.16;702514;28;1249;-63
2023/01/14 01:36:03;;;;;;;19.25;3.50;;;;;;;6.66;100.00;100807.44;700729;28;1471;-62
2023/01/14 01:36:26;;;;;;;16.42;3.28;;;;;;;6.59;100.00;100808.19;701310;28;1393;-61
2023/01/14 01:36:46;;;;;;;17.52;3.35;;;;;;;6.54;100.00;100808.13;700182;28;4508;-63
2023/01/14 01:37:07;;;;;;;15.40;3.33;;;;;;;6.52;100.00;100809.88;697452;28;1171;-64
2023/01/14 01:37:27;;;;;;;15.50;3.15;;;;;;;6.50;100.00;100810.69;694171;28;1405;-62
2023/01/14 01:37:48;;;;;;;15.63;3.40;;;;;;;6.48;100.00;100802.88;694594;28;1375;-62
2023/01/14 01:38:09;;;;;;;16.02;3.42;;;;;;;6.45;100.00;100814.09;694434;28;1246;-63
2023/01/14 01:38:30;;;;;;;18.83;3.50;;;;;;;6.44;100.00;100807.13;695844;28;1269;-62
2023/01/14 01:38:51;;;;;;;18.80;3.53;;;;;;;6.45;100.00;100811.50;692049;28;5431;-62
2023/01/14 01:39:13;;;;;;;21.08;3.70;;;;;;;6.47;100.00;100814.97;694182;28;1141;-63
2023/01/14 01:39:36;;;;;;;16.45;3.67;;;;;;;6.63;100.00;100809.97;693454;28;1447;-63
2023/01/14 01:39:57;;;;;;;15.77;3.33;;;;;;;6.62;100.00;100814.31;696150;28;4440;-62
2023/01/14 01:40:18;;;;;;;15.60;3.53;;;;;;;6.58;100.00;100811.66;698537;28;1313;-63
2023/01/14 01:40:38;;;;;;;15.63;3.30;;;;;;;6.54;100.00;100812.47;700423;28;1175;-63
2023/01/14 01:41:00;;;;;;;16.52;3.58;;;;;;;6.53;100.00;100816.78;701132;28;1229;-63
2023/01/14 01:41:23;;;;;;;17.50;3.28;;;;;;;6.56;100.00;100814.25;699424;28;1038;-62